sensor_id;sensor_type;location;lat;lon;timestamp;temperature;humidity
2577;DHT22;1298;51.252;6.802;2023-03-01T00:01:28;0.20;99.90
2577;DHT22;1298;51.252;6.802;2023-03-01T00:04:13;0.20;99.90
2577;DHT22;1298;51.252;6.802;2023-03-01T00:07:00;0.10;99.90
2577;DHT22;1298;51.252;6.802;2023-03-01T00:09:45;0.10;99.90
2577;DHT22;1298;51.252;6.802;2023-03-01T00:12:30;0.00;99.90
2577;DHT22;1298;51.252;6.802;2023-03-01T00:15:16;-0.10;99.90
2577;DHT22;1298;51.252;6.802;2023-03-01T00:18:01;-0.10;99.90
2577;DHT22;1298;51.252;6.802;2023-03-01T00:20:49;-0.10;99.90
2577;DHT22;1298;51.252;6.802;2023-03-01T00:23:36;-0.10;99.90
2577;DHT22;1298;51.252;6.802;2023-03-01T00:26:22;-0.20;99.90
2577;DHT22;1298;51.252;6.802;2023-03-01T00:29:08;-0.20;99.90
2577;DHT22;1298;51.252;6.802;2023-03-01T00:31:53;-0.30;99.90
2577;DHT22;1298;51.252;6.802;2023-03-01T00:34:38;-0.30;99.90
2577;DHT22;1298;51.252;6.802;2023-03-01T00:37:23;-0.30;99.90
2577;DHT22;1298;51.252;6.802;2023-03-01T00:40:11;-0.40;99.90
2577;DHT22;1298;51.252;6.802;2023-03-01T00:42:56;-0.40;99.90
2577;DHT22;1298;51.252;6.802;2023-03-01T00:45:41;-0.40;99.90
2577;DHT22;1298;51.252;6.802;2023-03-01T00:48:26;-0.50;99.90
2577;DHT22;1298;51.252;6.802;2023-03-01T00:51:12;-0.50;99.90
2577;DHT22;1298;51.252;6.802;2023-03-01T00:53:58;-0.50;99.90
2577;DHT22;1298;51.252;6.802;2023-03-01T00:56:45;-0.50;99.90
2577;DHT22;1298;51.252;6.802;2023-03-01T00:59:30;-0.50;99.90
2577;DHT22;1298;51.252;6.802;2023-03-01T01:02:15;-0.50;99.90
2577;DHT22;1298;51.252;6.802;2023-03-01T01:05:01;-0.60;99.90
2577;DHT22;1298;51.252;6.802;2023-03-01T01:07:46;-0.60;99.90
2577;DHT22;1298;51.252;6.802;2023-03-01T01:10:33;-0.60;99.90
2577;DHT22;1298;51.252;6.802;2023-03-01T01:16:11;-0.60;99.90
2577;DHT22;1298;51.252;6.802;2023-03-01T01:18:58;-0.60;99.90
2577;DHT22;1298;51.252;6.802;2023-03-01T01:21:43;-0.70;99.90
2577;DHT22;1298;51.252;6.802;2023-03-01T01:24:28;-0.70;99.90
2577;DHT22;1298;51.252;6.802;2023-03-01T01:27:13;-0.70;99.90
2577;DHT22;1298;51.252;6.802;2023-03-01T01:29:59;-0.80;99.90
2577;DHT22;1298;51.252;6.802;2023-03-01T01:32:45;-0.80;99.90
2577;DHT22;1298;51.252;6.802;2023-03-01T01:35:30;-0.80;99.90
2577;DHT22;1298;51.252;6.802;2023-03-01T01:38:15;-0.80;99.90
2577;DHT22;1298;51.252;6.802;2023-03-01T01:41:01;-0.80;99.90
2577;DHT22;1298;51.252;6.802;2023-03-01T01:43:47;-0.90;99.90
2577;DHT22;1298;51.252;6.802;2023-03-01T01:46:32;-0.90;99.90
2577;DHT22;1298;51.252;6.802;2023-03-01T01:49:22;-0.90;99.90
2577;DHT22;1298;51.252;6.802;2023-03-01T01:52:09;-0.90;99.90
2577;DHT22;1298;51.252;6.802;2023-03-01T01:54:56;-1.00;99.90
2577;DHT22;1298;51.252;6.802;2023-03-01T01:57:43;-1.10;99.90
2577;DHT22;1298;51.252;6.802;2023-03-01T02:00:30;-1.10;99.90
2577;DHT22;1298;51.252;6.802;2023-03-01T02:03:17;-1.10;99.90
2577;DHT22;1298;51.252;6.802;2023-03-01T02:06:06;-1.10;99.90
2577;DHT22;1298;51.252;6.802;2023-03-01T02:08:57;-1.10;99.90
2577;DHT22;1298;51.252;6.802;2023-03-01T02:11:44;-1.00;99.90
2577;DHT22;1298;51.252;6.802;2023-03-01T02:14:29;-1.00;99.90
2577;DHT22;1298;51.252;6.802;2023-03-01T02:17:14;-1.00;99.90
2577;DHT22;1298;51.252;6.802;2023-03-01T02:20:03;-1.00;99.90
2577;DHT22;1298;51.252;6.802;2023-03-01T02:22:52;-1.00;99.90
2577;DHT22;1298;51.252;6.802;2023-03-01T02:25:41;-1.00;99.90
2577;DHT22;1298;51.252;6.802;2023-03-01T02:28:32;-1.00;99.90
2577;DHT22;1298;51.252;6.802;2023-03-01T02:31:19;-1.10;99.90
2577;DHT22;1298;51.252;6.802;2023-03-01T02:34:23;-1.20;99.90
2577;DHT22;1298;51.252;6.802;2023-03-01T02:37:10;-1.10;99.90
2577;DHT22;1298;51.252;6.802;2023-03-01T02:39:57;-1.20;99.90
2577;DHT22;1298;51.252;6.802;2023-03-01T02:42:45;-1.20;99.90
2577;DHT22;1298;51.252;6.802;2023-03-01T02:45:33;-1.30;99.90
2577;DHT22;1298;51.252;6.802;2023-03-01T02:48:19;-1.30;99.90
2577;DHT22;1298;51.252;6.802;2023-03-01T02:51:05;-1.40;99.90
2577;DHT22;1298;51.252;6.802;2023-03-01T02:53:54;-1.40;99.90
2577;DHT22;1298;51.252;6.802;2023-03-01T02:56:45;-1.40;99.90
2577;DHT22;1298;51.252;6.802;2023-03-01T02:59:33;-1.40;99.90
2577;DHT22;1298;51.252;6.802;2023-03-01T03:02:24;-1.40;99.90
2577;DHT22;1298;51.252;6.802;2023-03-01T03:05:20;-1.50;99.90
2577;DHT22;1298;51.252;6.802;2023-03-01T03:08:06;-1.40;99.90
2577;DHT22;1298;51.252;6.802;2023-03-01T03:10:51;-1.40;99.90
2577;DHT22;1298;51.252;6.802;2023-03-01T03:13:37;-1.40;99.90
2577;DHT22;1298;51.252;6.802;2023-03-01T03:16:31;-1.40;99.90
2577;DHT22;1298;51.252;6.802;2023-03-01T03:19:18;-1.40;99.90
2577;DHT22;1298;51.252;6.802;2023-03-01T03:22:04;-1.30;99.90
2577;DHT22;1298;51.252;6.802;2023-03-01T03:24:49;-1.40;99.90
2577;DHT22;1298;51.252;6.802;2023-03-01T03:27:34;-1.40;99.90
2577;DHT22;1298;51.252;6.802;2023-03-01T03:30:19;-1.40;99.90
2577;DHT22;1298;51.252;6.802;2023-03-01T03:33:05;-1.40;99.90
2577;DHT22;1298;51.252;6.802;2023-03-01T03:35:53;-1.40;99.90
2577;DHT22;1298;51.252;6.802;2023-03-01T03:38:38;-1.40;99.90
2577;DHT22;1298;51.252;6.802;2023-03-01T03:41:24;-1.50;99.90
2577;DHT22;1298;51.252;6.802;2023-03-01T03:44:09;-1.50;99.90
2577;DHT22;1298;51.252;6.802;2023-03-01T03:46:54;-1.50;99.90
2577;DHT22;1298;51.252;6.802;2023-03-01T03:49:39;-1.50;99.90
2577;DHT22;1298;51.252;6.802;2023-03-01T03:52:26;-1.40;99.90
2577;DHT22;1298;51.252;6.802;2023-03-01T03:55:11;-1.40;99.90
2577;DHT22;1298;51.252;6.802;2023-03-01T03:57:57;-1.50;99.90
2577;DHT22;1298;51.252;6.802;2023-03-01T04:00:46;-1.50;99.90
2577;DHT22;1298;51.252;6.802;2023-03-01T04:03:32;-1.50;99.90
2577;DHT22;1298;51.252;6.802;2023-03-01T04:06:19;-1.50;99.90
2577;DHT22;1298;51.252;6.802;2023-03-01T04:09:05;-1.60;99.90
2577;DHT22;1298;51.252;6.802;2023-03-01T04:11:50;-1.60;99.90
2577;DHT22;1298;51.252;6.802;2023-03-01T04:14:35;-1.60;99.90
2577;DHT22;1298;51.252;6.802;2023-03-01T04:17:21;-1.60;99.90
2577;DHT22;1298;51.252;6.802;2023-03-01T04:20:06;-1.60;99.90
2577;DHT22;1298;51.252;6.802;2023-03-01T04:22:56;-1.50;99.90
2577;DHT22;1298;51.252;6.802;2023-03-01T04:25:45;-1.50;99.90
2577;DHT22;1298;51.252;6.802;2023-03-01T04:28:34;-1.60;99.90
2577;DHT22;1298;51.252;6.802;2023-03-01T04:31:19;-1.60;99.90
2577;DHT22;1298;51.252;6.802;2023-03-01T04:34:05;-1.60;99.90
2577;DHT22;1298;51.252;6.802;2023-03-01T04:36:50;-1.60;99.90
2577;DHT22;1298;51.252;6.802;2023-03-01T04:39:36;-1.70;99.90
2577;DHT22;1298;51.252;6.802;2023-03-01T04:42:30;-1.60;99.90
2577;DHT22;1298;51.252;6.802;2023-03-01T04:45:15;-1.60;99.90
2577;DHT22;1298;51.252;6.802;2023-03-01T04:48:00;-1.60;99.90
2577;DHT22;1298;51.252;6.802;2023-03-01T04:50:46;-1.60;99.90
2577;DHT22;1298;51.252;6.802;2023-03-01T04:53:31;-1.70;99.90
2577;DHT22;1298;51.252;6.802;2023-03-01T04:56:17;-1.70;99.90
2577;DHT22;1298;51.252;6.802;2023-03-01T04:59:03;-1.70;99.90
2577;DHT22;1298;51.252;6.802;2023-03-01T05:01:49;-1.70;99.90
2577;DHT22;1298;51.252;6.802;2023-03-01T05:04:34;-1.70;99.90
2577;DHT22;1298;51.252;6.802;2023-03-01T05:07:19;-1.70;99.90
2577;DHT22;1298;51.252;6.802;2023-03-01T05:10:04;-1.70;99.90
2577;DHT22;1298;51.252;6.802;2023-03-01T05:12:50;-1.70;99.90
2577;DHT22;1298;51.252;6.802;2023-03-01T05:15:37;-1.70;99.90
2577;DHT22;1298;51.252;6.802;2023-03-01T05:18:22;-1.70;99.90
2577;DHT22;1298;51.252;6.802;2023-03-01T05:21:10;-1.60;99.90
2577;DHT22;1298;51.252;6.802;2023-03-01T05:23:56;-1.60;99.90
2577;DHT22;1298;51.252;6.802;2023-03-01T05:26:41;-1.70;99.90
2577;DHT22;1298;51.252;6.802;2023-03-01T05:29:27;-1.70;99.90
2577;DHT22;1298;51.252;6.802;2023-03-01T05:32:14;-1.80;99.90
2577;DHT22;1298;51.252;6.802;2023-03-01T05:34:59;-1.80;99.90
2577;DHT22;1298;51.252;6.802;2023-03-01T05:37:45;-1.70;99.90
2577;DHT22;1298;51.252;6.802;2023-03-01T05:40:32;-1.70;99.90
2577;DHT22;1298;51.252;6.802;2023-03-01T05:43:17;-1.80;99.90
2577;DHT22;1298;51.252;6.802;2023-03-01T05:46:03;-1.80;99.90
2577;DHT22;1298;51.252;6.802;2023-03-01T05:48:50;-1.80;99.90
2577;DHT22;1298;51.252;6.802;2023-03-01T05:51:35;-1.80;99.90
2577;DHT22;1298;51.252;6.802;2023-03-01T05:54:20;-1.80;99.90
2577;DHT22;1298;51.252;6.802;2023-03-01T05:57:06;-1.90;99.90
2577;DHT22;1298;51.252;6.802;2023-03-01T05:59:51;-1.90;99.90
2577;DHT22;1298;51.252;6.802;2023-03-01T06:02:36;-1.90;99.90
2577;DHT22;1298;51.252;6.802;2023-03-01T06:05:23;-1.90;99.90
2577;DHT22;1298;51.252;6.802;2023-03-01T06:08:09;-1.90;99.90
2577;DHT22;1298;51.252;6.802;2023-03-01T06:10:54;-1.90;99.90
2577;DHT22;1298;51.252;6.802;2023-03-01T06:13:40;-1.90;99.90
2577;DHT22;1298;51.252;6.802;2023-03-01T06:16:26;-1.90;99.90
2577;DHT22;1298;51.252;6.802;2023-03-01T06:19:11;-1.90;99.90
2577;DHT22;1298;51.252;6.802;2023-03-01T06:21:57;-1.90;99.90
2577;DHT22;1298;51.252;6.802;2023-03-01T06:24:42;-1.90;99.90
2577;DHT22;1298;51.252;6.802;2023-03-01T06:27:27;-1.90;99.90
2577;DHT22;1298;51.252;6.802;2023-03-01T06:30:13;-1.80;99.90
2577;DHT22;1298;51.252;6.802;2023-03-01T06:32:59;-1.80;99.90
2577;DHT22;1298;51.252;6.802;2023-03-01T06:35:45;-1.80;99.90
2577;DHT22;1298;51.252;6.802;2023-03-01T06:38:32;-1.70;99.90
2577;DHT22;1298;51.252;6.802;2023-03-01T06:41:17;-1.70;99.90
2577;DHT22;1298;51.252;6.802;2023-03-01T06:44:03;-1.70;99.90
2577;DHT22;1298;51.252;6.802;2023-03-01T06:46:48;-1.70;99.90
2577;DHT22;1298;51.252;6.802;2023-03-01T06:49:34;-1.70;99.90
2577;DHT22;1298;51.252;6.802;2023-03-01T06:52:19;-1.60;99.90
2577;DHT22;1298;51.252;6.802;2023-03-01T06:55:06;-1.60;99.90
2577;DHT22;1298;51.252;6.802;2023-03-01T06:57:53;-1.50;99.90
2577;DHT22;1298;51.252;6.802;2023-03-01T07:00:39;-1.50;99.90
2577;DHT22;1298;51.252;6.802;2023-03-01T07:03:24;-1.50;99.90
2577;DHT22;1298;51.252;6.802;2023-03-01T07:06:09;-1.50;99.90
2577;DHT22;1298;51.252;6.802;2023-03-01T07:08:55;-1.40;99.90
2577;DHT22;1298;51.252;6.802;2023-03-01T07:11:41;-1.30;99.90
2577;DHT22;1298;51.252;6.802;2023-03-01T07:14:27;-1.10;99.90
2577;DHT22;1298;51.252;6.802;2023-03-01T07:17:12;-1.10;99.90
2577;DHT22;1298;51.252;6.802;2023-03-01T07:19:57;-1.00;99.90
2577;DHT22;1298;51.252;6.802;2023-03-01T07:22:43;-0.90;99.90
2577;DHT22;1298;51.252;6.802;2023-03-01T07:25:28;-0.80;99.90
2577;DHT22;1298;51.252;6.802;2023-03-01T07:28:14;-0.70;99.90
2577;DHT22;1298;51.252;6.802;2023-03-01T07:31:00;-0.70;99.90
2577;DHT22;1298;51.252;6.802;2023-03-01T07:33:45;-0.70;99.90
2577;DHT22;1298;51.252;6.802;2023-03-01T07:36:31;-0.60;99.90
2577;DHT22;1298;51.252;6.802;2023-03-01T07:39:16;-0.50;99.90
2577;DHT22;1298;51.252;6.802;2023-03-01T07:42:01;-0.50;99.90
2577;DHT22;1298;51.252;6.802;2023-03-01T07:44:48;-0.40;99.90
2577;DHT22;1298;51.252;6.802;2023-03-01T07:47:33;-0.30;99.90
2577;DHT22;1298;51.252;6.802;2023-03-01T07:50:18;-0.20;99.90
2577;DHT22;1298;51.252;6.802;2023-03-01T07:53:03;-0.10;99.90
2577;DHT22;1298;51.252;6.802;2023-03-01T07:55:49;0.10;99.90
2577;DHT22;1298;51.252;6.802;2023-03-01T07:58:34;0.30;99.90
2577;DHT22;1298;51.252;6.802;2023-03-01T08:01:22;0.40;99.90
2577;DHT22;1298;51.252;6.802;2023-03-01T08:04:07;0.50;99.90
2577;DHT22;1298;51.252;6.802;2023-03-01T08:06:53;0.70;99.90
2577;DHT22;1298;51.252;6.802;2023-03-01T08:09:38;0.80;99.90
2577;DHT22;1298;51.252;6.802;2023-03-01T08:12:24;0.90;99.90
2577;DHT22;1298;51.252;6.802;2023-03-01T08:15:11;1.00;99.90
2577;DHT22;1298;51.252;6.802;2023-03-01T08:17:57;1.10;99.90
2577;DHT22;1298;51.252;6.802;2023-03-01T08:20:42;1.30;99.90
2577;DHT22;1298;51.252;6.802;2023-03-01T08:23:28;1.30;99.90
2577;DHT22;1298;51.252;6.802;2023-03-01T08:26:14;1.40;99.90
2577;DHT22;1298;51.252;6.802;2023-03-01T08:29:00;1.50;99.90
2577;DHT22;1298;51.252;6.802;2023-03-01T08:31:46;1.60;99.90
2577;DHT22;1298;51.252;6.802;2023-03-01T08:34:32;1.60;99.90
2577;DHT22;1298;51.252;6.802;2023-03-01T08:37:19;1.60;99.90
2577;DHT22;1298;51.252;6.802;2023-03-01T08:40:05;1.60;99.90
2577;DHT22;1298;51.252;6.802;2023-03-01T08:42:54;1.70;99.90
2577;DHT22;1298;51.252;6.802;2023-03-01T08:45:39;1.90;99.90
2577;DHT22;1298;51.252;6.802;2023-03-01T08:48:24;1.90;99.90
2577;DHT22;1298;51.252;6.802;2023-03-01T08:51:12;2.00;99.90
2577;DHT22;1298;51.252;6.802;2023-03-01T08:53:57;2.00;99.90
2577;DHT22;1298;51.252;6.802;2023-03-01T08:56:42;2.10;99.90
2577;DHT22;1298;51.252;6.802;2023-03-01T08:59:27;2.20;99.90
2577;DHT22;1298;51.252;6.802;2023-03-01T09:02:21;2.30;99.90
2577;DHT22;1298;51.252;6.802;2023-03-01T09:05:07;2.40;99.90
2577;DHT22;1298;51.252;6.802;2023-03-01T09:07:53;2.50;99.90
2577;DHT22;1298;51.252;6.802;2023-03-01T09:10:39;2.60;99.90
2577;DHT22;1298;51.252;6.802;2023-03-01T09:13:24;2.70;99.90
2577;DHT22;1298;51.252;6.802;2023-03-01T09:16:11;2.80;99.90
2577;DHT22;1298;51.252;6.802;2023-03-01T09:18:57;2.80;99.90
2577;DHT22;1298;51.252;6.802;2023-03-01T09:21:42;2.90;99.90
2577;DHT22;1298;51.252;6.802;2023-03-01T09:24:37;3.00;99.90
2577;DHT22;1298;51.252;6.802;2023-03-01T09:27:24;3.10;99.90
2577;DHT22;1298;51.252;6.802;2023-03-01T09:30:09;3.10;99.90
2577;DHT22;1298;51.252;6.802;2023-03-01T09:32:55;3.20;99.90
2577;DHT22;1298;51.252;6.802;2023-03-01T09:35:41;3.30;99.90
2577;DHT22;1298;51.252;6.802;2023-03-01T09:38:31;3.30;99.90
2577;DHT22;1298;51.252;6.802;2023-03-01T09:41:21;3.40;99.90
2577;DHT22;1298;51.252;6.802;2023-03-01T09:44:13;3.50;99.90
2577;DHT22;1298;51.252;6.802;2023-03-01T09:47:00;3.50;99.90
2577;DHT22;1298;51.252;6.802;2023-03-01T09:49:48;3.60;99.90
2577;DHT22;1298;51.252;6.802;2023-03-01T09:52:39;3.70;99.90
2577;DHT22;1298;51.252;6.802;2023-03-01T09:55:26;3.80;99.90
2577;DHT22;1298;51.252;6.802;2023-03-01T09:58:27;3.80;99.90
2577;DHT22;1298;51.252;6.802;2023-03-01T10:01:19;3.80;99.90
2577;DHT22;1298;51.252;6.802;2023-03-01T10:04:28;3.90;99.90
2577;DHT22;1298;51.252;6.802;2023-03-01T10:07:19;3.90;99.90
2577;DHT22;1298;51.252;6.802;2023-03-01T10:10:05;4.00;99.90
2577;DHT22;1298;51.252;6.802;2023-03-01T10:12:51;4.00;99.90
2577;DHT22;1298;51.252;6.802;2023-03-01T10:15:39;4.00;99.90
2577;DHT22;1298;51.252;6.802;2023-03-01T10:18:28;4.10;99.90
2577;DHT22;1298;51.252;6.802;2023-03-01T10:21:16;4.10;99.90
2577;DHT22;1298;51.252;6.802;2023-03-01T10:24:08;4.10;99.90
2577;DHT22;1298;51.252;6.802;2023-03-01T10:26:54;4.00;99.90
2577;DHT22;1298;51.252;6.802;2023-03-01T10:29:42;4.10;99.90
2577;DHT22;1298;51.252;6.802;2023-03-01T10:32:32;4.30;99.90
2577;DHT22;1298;51.252;6.802;2023-03-01T10:35:18;4.30;99.90
2577;DHT22;1298;51.252;6.802;2023-03-01T10:38:05;4.30;99.90
2577;DHT22;1298;51.252;6.802;2023-03-01T10:40:51;4.40;99.90
2577;DHT22;1298;51.252;6.802;2023-03-01T10:43:42;4.40;99.90
2577;DHT22;1298;51.252;6.802;2023-03-01T10:46:29;4.40;99.90
2577;DHT22;1298;51.252;6.802;2023-03-01T10:49:17;4.50;99.90
2577;DHT22;1298;51.252;6.802;2023-03-01T10:52:11;4.60;99.90
2577;DHT22;1298;51.252;6.802;2023-03-01T10:55:02;4.60;99.90
2577;DHT22;1298;51.252;6.802;2023-03-01T10:57:48;4.60;99.90
2577;DHT22;1298;51.252;6.802;2023-03-01T11:00:34;4.70;99.90
2577;DHT22;1298;51.252;6.802;2023-03-01T11:03:30;4.80;99.90
2577;DHT22;1298;51.252;6.802;2023-03-01T11:06:21;4.90;99.90
2577;DHT22;1298;51.252;6.802;2023-03-01T11:09:13;5.00;99.90
2577;DHT22;1298;51.252;6.802;2023-03-01T11:12:00;5.10;99.90
2577;DHT22;1298;51.252;6.802;2023-03-01T11:14:46;5.10;99.90
2577;DHT22;1298;51.252;6.802;2023-03-01T11:17:31;5.10;99.90
2577;DHT22;1298;51.252;6.802;2023-03-01T11:20:20;5.10;99.90
2577;DHT22;1298;51.252;6.802;2023-03-01T11:23:10;5.20;99.90
2577;DHT22;1298;51.252;6.802;2023-03-01T11:25:58;5.20;99.90
2577;DHT22;1298;51.252;6.802;2023-03-01T11:28:43;5.30;99.90
2577;DHT22;1298;51.252;6.802;2023-03-01T11:31:31;5.40;99.90
2577;DHT22;1298;51.252;6.802;2023-03-01T11:34:17;5.50;99.90
2577;DHT22;1298;51.252;6.802;2023-03-01T11:37:08;5.50;99.90
2577;DHT22;1298;51.252;6.802;2023-03-01T11:39:58;5.50;99.90
2577;DHT22;1298;51.252;6.802;2023-03-01T11:42:50;5.50;99.90
2577;DHT22;1298;51.252;6.802;2023-03-01T11:45:41;5.60;99.90
2577;DHT22;1298;51.252;6.802;2023-03-01T11:48:37;5.80;99.90
2577;DHT22;1298;51.252;6.802;2023-03-01T11:51:30;5.80;99.90
2577;DHT22;1298;51.252;6.802;2023-03-01T11:54:30;5.90;99.90
2577;DHT22;1298;51.252;6.802;2023-03-01T11:57:29;6.00;99.90
2577;DHT22;1298;51.252;6.802;2023-03-01T12:00:23;6.00;99.90
2577;DHT22;1298;51.252;6.802;2023-03-01T12:06:12;6.20;99.90
2577;DHT22;1298;51.252;6.802;2023-03-01T12:09:17;6.30;99.90
2577;DHT22;1298;51.252;6.802;2023-03-01T12:12:08;6.40;99.90
2577;DHT22;1298;51.252;6.802;2023-03-01T12:15:06;6.50;99.90
2577;DHT22;1298;51.252;6.802;2023-03-01T12:18:01;6.60;99.90
2577;DHT22;1298;51.252;6.802;2023-03-01T12:20:52;6.60;99.90
2577;DHT22;1298;51.252;6.802;2023-03-01T12:23:45;6.70;99.90
2577;DHT22;1298;51.252;6.802;2023-03-01T12:26:33;6.70;99.90
2577;DHT22;1298;51.252;6.802;2023-03-01T12:29:23;6.70;99.90
2577;DHT22;1298;51.252;6.802;2023-03-01T12:32:21;6.70;99.90
2577;DHT22;1298;51.252;6.802;2023-03-01T12:35:16;6.70;99.90
2577;DHT22;1298;51.252;6.802;2023-03-01T12:38:08;6.70;99.90
2577;DHT22;1298;51.252;6.802;2023-03-01T12:44:01;6.70;99.90
2577;DHT22;1298;51.252;6.802;2023-03-01T12:46:52;6.70;99.90
2577;DHT22;1298;51.252;6.802;2023-03-01T12:49:44;6.70;99.90
2577;DHT22;1298;51.252;6.802;2023-03-01T12:52:33;6.60;99.90
2577;DHT22;1298;51.252;6.802;2023-03-01T12:55:25;6.70;99.90
2577;DHT22;1298;51.252;6.802;2023-03-01T12:58:13;6.90;99.90
2577;DHT22;1298;51.252;6.802;2023-03-01T13:01:13;7.00;99.90
2577;DHT22;1298;51.252;6.802;2023-03-01T13:04:07;7.20;99.90
2577;DHT22;1298;51.252;6.802;2023-03-01T13:06:58;7.20;99.90
2577;DHT22;1298;51.252;6.802;2023-03-01T13:09:47;7.50;99.90
2577;DHT22;1298;51.252;6.802;2023-03-01T13:12:41;8.10;99.90
2577;DHT22;1298;51.252;6.802;2023-03-01T13:15:31;8.60;99.90
2577;DHT22;1298;51.252;6.802;2023-03-01T13:18:30;9.10;99.90
2577;DHT22;1298;51.252;6.802;2023-03-01T13:21:28;9.60;99.90
2577;DHT22;1298;51.252;6.802;2023-03-01T13:24:25;10.60;99.90
2577;DHT22;1298;51.252;6.802;2023-03-01T13:27:18;11.20;99.90
2577;DHT22;1298;51.252;6.802;2023-03-01T13:30:12;11.50;99.90
2577;DHT22;1298;51.252;6.802;2023-03-01T13:39:39;13.60;99.90
2577;DHT22;1298;51.252;6.802;2023-03-01T13:42:30;14.00;99.90
2577;DHT22;1298;51.252;6.802;2023-03-01T13:45:23;13.70;99.90
2577;DHT22;1298;51.252;6.802;2023-03-01T13:48:11;13.40;99.90
2577;DHT22;1298;51.252;6.802;2023-03-01T13:51:00;13.40;99.90
2577;DHT22;1298;51.252;6.802;2023-03-01T13:53:47;13.20;99.90
2577;DHT22;1298;51.252;6.802;2023-03-01T13:56:36;13.30;99.90
2577;DHT22;1298;51.252;6.802;2023-03-01T13:59:23;12.90;99.90
2577;DHT22;1298;51.252;6.802;2023-03-01T14:02:10;12.80;99.90
2577;DHT22;1298;51.252;6.802;2023-03-01T14:04:57;13.00;99.90
2577;DHT22;1298;51.252;6.802;2023-03-01T14:07:42;12.80;99.90
2577;DHT22;1298;51.252;6.802;2023-03-01T14:10:29;13.70;99.90
2577;DHT22;1298;51.252;6.802;2023-03-01T14:13:25;13.50;99.90
2577;DHT22;1298;51.252;6.802;2023-03-01T14:16:20;13.30;99.90
2577;DHT22;1298;51.252;6.802;2023-03-01T14:19:13;13.00;99.90
2577;DHT22;1298;51.252;6.802;2023-03-01T14:22:03;12.60;99.90
2577;DHT22;1298;51.252;6.802;2023-03-01T14:24:50;12.60;99.90
2577;DHT22;1298;51.252;6.802;2023-03-01T14:27:36;13.40;99.90
2577;DHT22;1298;51.252;6.802;2023-03-01T14:30:25;14.20;99.90
2577;DHT22;1298;51.252;6.802;2023-03-01T14:33:18;13.90;99.90
2577;DHT22;1298;51.252;6.802;2023-03-01T14:36:05;13.90;99.90
2577;DHT22;1298;51.252;6.802;2023-03-01T14:38:51;13.80;99.90
2577;DHT22;1298;51.252;6.802;2023-03-01T14:41:36;14.00;99.90
2577;DHT22;1298;51.252;6.802;2023-03-01T14:44:22;13.80;99.90
2577;DHT22;1298;51.252;6.802;2023-03-01T14:47:11;13.40;99.90
2577;DHT22;1298;51.252;6.802;2023-03-01T14:49:58;13.00;99.90
2577;DHT22;1298;51.252;6.802;2023-03-01T14:52:44;13.20;99.90
2577;DHT22;1298;51.252;6.802;2023-03-01T14:55:32;13.20;99.90
2577;DHT22;1298;51.252;6.802;2023-03-01T14:58:19;13.60;99.90
2577;DHT22;1298;51.252;6.802;2023-03-01T15:01:04;14.20;99.90
2577;DHT22;1298;51.252;6.802;2023-03-01T15:03:53;15.10;99.90
2577;DHT22;1298;51.252;6.802;2023-03-01T15:06:39;15.00;99.90
2577;DHT22;1298;51.252;6.802;2023-03-01T15:09:24;14.50;99.90
2577;DHT22;1298;51.252;6.802;2023-03-01T15:15:34;14.30;99.90
2577;DHT22;1298;51.252;6.802;2023-03-01T15:18:20;13.90;99.90
2577;DHT22;1298;51.252;6.802;2023-03-01T15:21:08;13.40;99.90
2577;DHT22;1298;51.252;6.802;2023-03-01T15:23:55;13.20;99.90
2577;DHT22;1298;51.252;6.802;2023-03-01T15:26:42;13.30;99.90
2577;DHT22;1298;51.252;6.802;2023-03-01T15:29:29;13.00;99.90
2577;DHT22;1298;51.252;6.802;2023-03-01T15:32:24;13.50;99.90
2577;DHT22;1298;51.252;6.802;2023-03-01T15:38:26;12.70;99.90
2577;DHT22;1298;51.252;6.802;2023-03-01T15:41:21;12.90;99.90
2577;DHT22;1298;51.252;6.802;2023-03-01T15:44:14;13.00;99.90
2577;DHT22;1298;51.252;6.802;2023-03-01T15:47:00;13.00;99.90
2577;DHT22;1298;51.252;6.802;2023-03-01T15:49:46;13.30;99.90
2577;DHT22;1298;51.252;6.802;2023-03-01T15:52:33;13.40;99.90
2577;DHT22;1298;51.252;6.802;2023-03-01T15:55:22;13.20;99.90
2577;DHT22;1298;51.252;6.802;2023-03-01T15:58:09;13.20;99.90
2577;DHT22;1298;51.252;6.802;2023-03-01T16:00:55;13.30;99.90
2577;DHT22;1298;51.252;6.802;2023-03-01T16:03:40;12.80;99.90
2577;DHT22;1298;51.252;6.802;2023-03-01T16:06:26;12.90;99.90
2577;DHT22;1298;51.252;6.802;2023-03-01T16:09:11;13.00;99.90
2577;DHT22;1298;51.252;6.802;2023-03-01T16:11:57;12.60;99.90
2577;DHT22;1298;51.252;6.802;2023-03-01T16:14:43;11.80;99.90
2577;DHT22;1298;51.252;6.802;2023-03-01T16:17:28;11.30;99.90
2577;DHT22;1298;51.252;6.802;2023-03-01T16:20:13;10.60;99.90
2577;DHT22;1298;51.252;6.802;2023-03-01T16:22:59;9.90;99.90
2577;DHT22;1298;51.252;6.802;2023-03-01T16:25:45;9.10;99.90
2577;DHT22;1298;51.252;6.802;2023-03-01T16:28:31;8.40;99.90
2577;DHT22;1298;51.252;6.802;2023-03-01T16:31:18;8.10;99.90
2577;DHT22;1298;51.252;6.802;2023-03-01T16:34:04;7.80;99.90
2577;DHT22;1298;51.252;6.802;2023-03-01T16:36:49;7.50;99.90
2577;DHT22;1298;51.252;6.802;2023-03-01T16:39:37;7.30;99.90
2577;DHT22;1298;51.252;6.802;2023-03-01T16:42:23;7.20;99.90
2577;DHT22;1298;51.252;6.802;2023-03-01T16:45:10;7.00;99.90
2577;DHT22;1298;51.252;6.802;2023-03-01T16:47:55;7.00;99.90
2577;DHT22;1298;51.252;6.802;2023-03-01T16:50:41;6.90;99.90
2577;DHT22;1298;51.252;6.802;2023-03-01T16:53:26;6.80;99.90
2577;DHT22;1298;51.252;6.802;2023-03-01T16:56:12;6.80;99.90
2577;DHT22;1298;51.252;6.802;2023-03-01T16:58:58;6.60;99.90
2577;DHT22;1298;51.252;6.802;2023-03-01T17:01:44;6.50;99.90
2577;DHT22;1298;51.252;6.802;2023-03-01T17:04:31;6.40;99.90
2577;DHT22;1298;51.252;6.802;2023-03-01T17:07:16;6.30;99.90
2577;DHT22;1298;51.252;6.802;2023-03-01T17:10:02;6.10;99.90
2577;DHT22;1298;51.252;6.802;2023-03-01T17:12:47;6.00;99.90
2577;DHT22;1298;51.252;6.802;2023-03-01T17:15:33;6.00;99.90
2577;DHT22;1298;51.252;6.802;2023-03-01T17:18:19;5.80;99.90
2577;DHT22;1298;51.252;6.802;2023-03-01T17:21:05;5.80;99.90
2577;DHT22;1298;51.252;6.802;2023-03-01T17:23:51;5.70;99.90
2577;DHT22;1298;51.252;6.802;2023-03-01T17:26:40;5.60;99.90
2577;DHT22;1298;51.252;6.802;2023-03-01T17:29:26;5.50;99.90
2577;DHT22;1298;51.252;6.802;2023-03-01T17:32:11;5.50;99.90
2577;DHT22;1298;51.252;6.802;2023-03-01T17:34:58;5.50;99.90
2577;DHT22;1298;51.252;6.802;2023-03-01T17:37:43;5.40;99.90
2577;DHT22;1298;51.252;6.802;2023-03-01T17:40:29;5.30;99.90
2577;DHT22;1298;51.252;6.802;2023-03-01T17:43:15;5.30;99.90
2577;DHT22;1298;51.252;6.802;2023-03-01T17:46:03;5.30;99.90
2577;DHT22;1298;51.252;6.802;2023-03-01T17:48:55;5.20;99.90
2577;DHT22;1298;51.252;6.802;2023-03-01T17:51:41;5.20;99.90
2577;DHT22;1298;51.252;6.802;2023-03-01T17:54:27;5.10;99.90
2577;DHT22;1298;51.252;6.802;2023-03-01T17:57:12;5.10;99.90
2577;DHT22;1298;51.252;6.802;2023-03-01T17:59:58;5.00;99.90
2577;DHT22;1298;51.252;6.802;2023-03-01T18:02:43;5.00;99.90
2577;DHT22;1298;51.252;6.802;2023-03-01T18:05:30;5.00;99.90
2577;DHT22;1298;51.252;6.802;2023-03-01T18:08:17;4.90;99.90
2577;DHT22;1298;51.252;6.802;2023-03-01T18:11:03;4.90;99.90
2577;DHT22;1298;51.252;6.802;2023-03-01T18:13:48;4.80;99.90
2577;DHT22;1298;51.252;6.802;2023-03-01T18:16:34;4.80;99.90
2577;DHT22;1298;51.252;6.802;2023-03-01T18:19:23;4.70;99.90
2577;DHT22;1298;51.252;6.802;2023-03-01T18:22:08;4.70;99.90
2577;DHT22;1298;51.252;6.802;2023-03-01T18:24:55;4.70;99.90
2577;DHT22;1298;51.252;6.802;2023-03-01T18:27:41;4.70;99.90
2577;DHT22;1298;51.252;6.802;2023-03-01T18:30:26;4.70;99.90
2577;DHT22;1298;51.252;6.802;2023-03-01T18:33:11;4.60;99.90
2577;DHT22;1298;51.252;6.802;2023-03-01T18:35:56;4.60;99.90
2577;DHT22;1298;51.252;6.802;2023-03-01T18:38:41;4.60;99.90
2577;DHT22;1298;51.252;6.802;2023-03-01T18:41:28;4.60;99.90
2577;DHT22;1298;51.252;6.802;2023-03-01T18:44:14;4.50;99.90